createdAt,value
2024-01-11T00:00:52.407Z,-7.18
2024-01-11T00:03:20.763Z,-7.22
2024-01-11T00:05:51.214Z,-7.25
2024-01-11T00:08:20.007Z,-6.89
2024-01-11T00:10:48.664Z,-6.89
2024-01-11T00:13:16.832Z,-7.12
2024-01-11T00:15:45.899Z,-7.19
2024-01-11T00:18:14.619Z,-7.30
2024-01-11T00:20:43.623Z,-7.43
2024-01-11T00:23:13.664Z,-7.45
2024-01-11T00:25:42.014Z,-7.41
2024-01-11T00:28:10.915Z,-7.56
2024-01-11T00:30:43.916Z,-7.60
2024-01-11T00:33:12.654Z,-7.47
2024-01-11T00:35:42.375Z,-7.34
2024-01-11T00:38:11.238Z,-7.38
2024-01-11T00:40:42.084Z,-7.11
2024-01-11T00:43:10.753Z,-7.21
2024-01-11T00:45:39.780Z,-7.46
2024-01-11T00:48:09.358Z,-7.53
2024-01-11T00:50:37.770Z,-7.71
2024-01-11T00:53:06.809Z,-7.93
2024-01-11T00:55:36.958Z,-7.71
2024-01-11T00:58:06.868Z,-7.67
2024-01-11T01:00:35.256Z,-7.76
2024-01-11T01:03:03.556Z,-7.73
2024-01-11T01:05:32.227Z,-7.64
2024-01-11T01:08:00.564Z,-7.64
2024-01-11T01:10:29.262Z,-7.61
2024-01-11T01:12:57.992Z,-7.59
2024-01-11T01:15:27.711Z,-7.39
2024-01-11T01:17:55.687Z,-7.58
2024-01-11T01:20:24.709Z,-7.64
2024-01-11T01:22:53.239Z,-7.71
2024-01-11T01:25:21.585Z,-7.69
2024-01-11T01:27:50.578Z,-7.57
2024-01-11T01:30:19.203Z,-7.78
2024-01-11T01:32:50.271Z,-7.69
2024-01-11T01:35:19.000Z,-7.66
2024-01-11T01:37:47.969Z,-7.66
2024-01-11T01:40:16.953Z,-7.89
2024-01-11T01:42:46.652Z,-7.77
2024-01-11T01:45:16.900Z,-7.79
2024-01-11T01:47:46.341Z,-7.77
2024-01-11T01:50:16.880Z,-7.60
2024-01-11T01:52:45.614Z,-7.69
2024-01-11T01:55:14.833Z,-7.71
2024-01-11T01:57:45.432Z,-7.78
2024-01-11T02:00:15.106Z,-7.83
2024-01-11T02:02:46.044Z,-7.97
2024-01-11T02:05:18.907Z,-8.06
2024-01-11T02:07:47.748Z,-7.93
2024-01-11T02:10:15.916Z,-7.90
2024-01-11T02:12:44.501Z,-7.89
2024-01-11T02:15:12.941Z,-7.86
2024-01-11T02:17:42.973Z,-7.77
2024-01-11T02:20:13.082Z,-7.82
2024-01-11T02:22:49.264Z,-7.82
2024-01-11T02:25:19.138Z,-8.00
2024-01-11T02:27:49.059Z,-7.95
2024-01-11T02:30:20.618Z,-7.96
2024-01-11T02:32:51.251Z,-7.94
2024-01-11T02:35:21.443Z,-7.95
2024-01-11T02:37:50.629Z,-7.90
2024-01-11T02:40:21.534Z,-7.94
2024-01-11T02:42:48.796Z,-7.82
2024-01-11T02:45:17.378Z,-7.78
2024-01-11T02:47:45.641Z,-8.01
2024-01-11T02:50:14.402Z,-8.14
2024-01-11T02:52:43.116Z,-8.18
2024-01-11T02:55:11.598Z,-8.09
2024-01-11T02:57:41.968Z,-8.11
2024-01-11T03:00:10.943Z,-7.78
2024-01-11T03:02:40.147Z,-7.88
2024-01-11T03:05:08.845Z,-8.02
2024-01-11T03:07:37.705Z,-7.99
2024-01-11T03:10:06.646Z,-8.14
2024-01-11T03:12:34.740Z,-8.06
2024-01-11T03:15:05.203Z,-8.10
2024-01-11T03:17:33.922Z,-7.98
2024-01-11T03:20:02.470Z,-8.02
2024-01-11T03:22:30.702Z,-8.00
2024-01-11T03:24:58.716Z,-8.04
2024-01-11T03:27:26.807Z,-8.12
2024-01-11T03:29:54.934Z,-8.09
2024-01-11T03:32:24.788Z,-8.10
2024-01-11T03:34:53.451Z,-8.21
2024-01-11T03:37:21.480Z,-8.00
2024-01-11T03:39:49.749Z,-8.07
2024-01-11T03:42:18.571Z,-8.09
2024-01-11T03:44:47.261Z,-8.26
2024-01-11T03:47:15.523Z,-8.35
2024-01-11T03:49:45.163Z,-8.35
2024-01-11T03:52:15.073Z,-8.20
2024-01-11T03:54:43.403Z,-8.33
2024-01-11T03:57:11.763Z,-8.25
2024-01-11T03:59:40.004Z,-8.22
2024-01-11T04:02:08.254Z,-8.09
2024-01-11T04:04:36.378Z,-8.09
2024-01-11T04:07:06.220Z,-8.14
2024-01-11T04:09:34.893Z,-8.13
2024-01-11T04:12:04.819Z,-8.09
2024-01-11T04:14:33.734Z,-8.07
2024-01-11T04:17:03.731Z,-8.05
2024-01-11T04:19:32.061Z,-8.04
2024-01-11T04:22:00.267Z,-8.03
2024-01-11T04:24:29.816Z,-8.04
2024-01-11T04:26:58.339Z,-8.02
2024-01-11T04:29:26.678Z,-8.17
2024-01-11T04:31:55.042Z,-8.12
2024-01-11T04:34:23.145Z,-8.00
2024-01-11T04:36:51.670Z,-7.51
2024-01-11T04:39:19.957Z,-7.18
2024-01-11T04:41:49.351Z,-7.14
2024-01-11T04:44:17.733Z,-7.28
2024-01-11T04:46:46.094Z,-7.54
2024-01-11T04:49:14.536Z,-7.68
2024-01-11T04:51:42.932Z,-7.66
2024-01-11T04:54:11.395Z,-7.40
2024-01-11T04:56:39.704Z,-7.34
2024-01-11T04:59:09.283Z,-7.30
2024-01-11T05:01:37.394Z,-7.43
2024-01-11T05:04:06.087Z,-7.50
2024-01-11T05:06:34.321Z,-7.41
2024-01-11T05:09:03.011Z,-7.25
2024-01-11T05:11:31.210Z,-7.30
2024-01-11T05:13:59.504Z,-7.33
2024-01-11T05:16:30.505Z,-7.43
2024-01-11T05:19:00.087Z,-7.61
2024-01-11T05:21:28.214Z,-8.03
2024-01-11T05:23:56.229Z,-8.11
2024-01-11T05:26:24.323Z,-8.12
2024-01-11T05:28:55.157Z,-8.10
2024-01-11T05:31:23.717Z,-8.12
2024-01-11T05:33:53.681Z,-8.06
2024-01-11T05:36:22.758Z,-8.04
2024-01-11T05:38:52.439Z,-7.97
2024-01-11T05:41:20.999Z,-8.10
2024-01-11T05:43:49.694Z,-8.24
2024-01-11T05:46:18.102Z,-8.19
2024-01-11T05:48:47.313Z,-8.19
2024-01-11T05:51:17.459Z,-8.33
2024-01-11T05:53:46.014Z,-8.44
2024-01-11T05:56:14.805Z,-8.26
2024-01-11T05:58:43.881Z,-8.11
2024-01-11T06:01:12.850Z,-8.09
2024-01-11T06:03:43.057Z,-8.17
2024-01-11T06:06:11.683Z,-8.29
2024-01-11T06:08:43.985Z,-8.24
2024-01-11T06:11:13.480Z,-7.94
2024-01-11T06:13:42.768Z,-7.89
2024-01-11T06:16:13.426Z,-7.92
2024-01-11T06:18:42.177Z,-8.05
2024-01-11T06:21:10.514Z,-8.05
2024-01-11T06:23:39.584Z,-8.14
2024-01-11T06:26:10.248Z,-8.23
2024-01-11T06:28:39.177Z,-8.10
2024-01-11T06:31:07.792Z,-8.00
2024-01-11T06:33:38.439Z,-7.99
2024-01-11T06:36:08.475Z,-7.98
2024-01-11T06:38:37.337Z,-8.00
2024-01-11T06:41:05.801Z,-7.93
2024-01-11T06:43:35.986Z,-7.91
2024-01-11T06:46:06.462Z,-7.95
2024-01-11T06:48:35.554Z,-7.82
2024-01-11T06:51:04.535Z,-7.68
2024-01-11T06:53:35.442Z,-7.83
2024-01-11T06:56:04.592Z,-7.78
2024-01-11T06:58:35.770Z,-7.85
2024-01-11T07:01:07.935Z,-7.91
2024-01-11T07:03:38.629Z,-8.01
2024-01-11T07:06:08.978Z,-7.97
2024-01-11T07:08:37.775Z,-7.85
2024-01-11T07:11:06.813Z,-7.85
2024-01-11T07:13:35.589Z,-7.96
2024-01-11T07:16:05.656Z,-7.89
2024-01-11T07:18:35.541Z,-7.83
2024-01-11T07:21:04.709Z,-7.78
2024-01-11T07:23:32.992Z,-7.85
2024-01-11T07:26:01.254Z,-7.80
2024-01-11T07:28:29.627Z,-7.77
2024-01-11T07:30:58.022Z,-7.90
2024-01-11T07:33:26.868Z,-7.85
2024-01-11T07:35:58.068Z,-7.95
2024-01-11T07:38:27.870Z,-8.06
2024-01-11T07:40:56.600Z,-7.81
2024-01-11T07:43:31.486Z,-7.80
2024-01-11T07:46:00.324Z,-7.66
2024-01-11T07:48:29.140Z,-7.68
2024-01-11T07:51:00.010Z,-7.53
2024-01-11T07:53:29.265Z,-7.66
2024-01-11T07:55:57.377Z,-7.69
2024-01-11T07:58:25.721Z,-7.66
2024-01-11T08:00:55.663Z,-7.71
2024-01-11T08:03:24.644Z,-7.47
2024-01-11T08:05:53.100Z,-7.10
2024-01-11T08:08:23.230Z,-6.59
2024-01-11T08:10:51.477Z,-5.94
2024-01-11T08:13:19.771Z,-5.45
2024-01-11T08:15:47.914Z,-5.04
2024-01-11T08:18:16.523Z,-4.80
2024-01-11T08:20:44.851Z,-5.06
2024-01-11T08:23:13.194Z,-4.98
2024-01-11T08:25:43.070Z,-4.75
2024-01-11T08:28:12.064Z,-4.44
2024-01-11T08:30:40.405Z,-4.24
2024-01-11T08:33:08.570Z,-4.30
2024-01-11T08:35:37.506Z,-4.29
2024-01-11T08:38:05.993Z,-4.27
2024-01-11T08:40:34.154Z,-4.71
2024-01-11T08:43:04.391Z,-4.67
2024-01-11T08:45:32.698Z,-4.66
2024-01-11T08:48:01.976Z,-4.52
2024-01-11T08:50:30.440Z,-4.37
2024-01-11T08:52:58.508Z,-3.64
2024-01-11T08:55:27.713Z,-3.44
2024-01-11T08:57:55.874Z,-3.57
2024-01-11T09:00:25.528Z,-3.26
2024-01-11T09:02:53.957Z,-3.07
2024-01-11T09:05:22.695Z,-3.03
2024-01-11T09:07:52.310Z,-3.01
2024-01-11T09:10:21.934Z,-3.16
2024-01-11T09:12:49.968Z,-3.09
2024-01-11T09:15:18.391Z,-3.06
2024-01-11T09:17:48.188Z,-3.28
2024-01-11T09:20:17.788Z,-3.24
2024-01-11T09:22:46.632Z,-3.09
2024-01-11T09:25:14.983Z,-2.95
2024-01-11T09:27:43.450Z,-2.84
2024-01-11T09:30:12.272Z,-2.71
2024-01-11T09:32:40.748Z,-2.54
2024-01-11T09:35:11.984Z,-2.46
2024-01-11T09:37:43.890Z,-2.37
2024-01-11T09:40:12.746Z,-2.26
2024-01-11T09:42:42.023Z,-2.29
2024-01-11T09:45:13.511Z,-2.29
2024-01-11T09:47:42.360Z,-2.55
2024-01-11T09:50:16.213Z,-2.94
2024-01-11T09:52:48.760Z,-3.20
2024-01-11T09:55:17.685Z,-3.47
2024-01-11T09:57:47.809Z,-3.20
2024-01-11T10:00:19.895Z,-2.99
2024-01-11T10:02:48.736Z,-2.75
2024-01-11T10:05:20.555Z,-2.44
2024-01-11T10:07:49.144Z,-2.34
2024-01-11T10:10:18.142Z,-2.04
2024-01-11T10:12:46.732Z,-1.85
2024-01-11T10:15:15.601Z,-1.79
2024-01-11T10:17:45.385Z,-1.87
2024-01-11T10:20:18.312Z,-1.71
2024-01-11T10:22:49.372Z,-1.71
2024-01-11T10:25:19.883Z,-1.79
2024-01-11T10:27:48.155Z,-1.82
2024-01-11T10:30:18.653Z,-2.02
2024-01-11T10:32:48.088Z,-2.02
2024-01-11T10:35:18.646Z,-2.08
2024-01-11T10:37:54.922Z,-2.13
2024-01-11T10:40:26.817Z,-2.19
2024-01-11T10:42:56.004Z,-2.28
2024-01-11T10:45:28.298Z,-2.23
2024-01-11T10:48:01.469Z,-2.21
2024-01-11T10:50:36.510Z,-2.30
2024-01-11T10:53:19.846Z,-2.32
2024-01-11T10:55:49.470Z,-2.31
2024-01-11T10:58:18.663Z,-2.06
2024-01-11T11:00:50.629Z,-2.13
2024-01-11T11:03:21.714Z,-2.20
2024-01-11T11:05:52.722Z,-2.26
2024-01-11T11:08:22.934Z,-2.21
2024-01-11T11:10:53.527Z,-2.26
2024-01-11T11:13:22.236Z,-2.24
2024-01-11T11:15:50.952Z,-2.19
2024-01-11T11:18:20.578Z,-2.10
2024-01-11T11:20:49.418Z,-2.16
2024-01-11T11:23:19.637Z,-2.23
2024-01-11T11:25:50.599Z,-2.08
2024-01-11T11:28:20.773Z,-2.09
2024-01-11T11:30:51.377Z,-2.08
2024-01-11T11:33:21.634Z,-2.29
2024-01-11T11:35:51.079Z,-2.44
2024-01-11T11:38:21.020Z,-2.25
2024-01-11T11:40:53.251Z,-2.21
2024-01-11T11:43:23.347Z,-2.07
2024-01-11T11:45:53.068Z,-2.03
2024-01-11T11:48:53.758Z,-1.92
2024-01-11T11:51:24.738Z,-1.91
2024-01-11T11:53:55.449Z,-2.05
2024-01-11T11:56:25.896Z,-2.17
2024-01-11T11:58:56.547Z,-2.14
2024-01-11T12:01:25.215Z,-2.09
2024-01-11T12:03:54.707Z,-2.13
2024-01-11T12:06:26.112Z,-2.18
2024-01-11T12:08:57.845Z,-2.08
2024-01-11T12:11:28.811Z,-2.02
2024-01-11T12:13:59.302Z,-2.00
2024-01-11T12:16:28.782Z,-2.01
2024-01-11T12:18:57.715Z,-2.07
2024-01-11T12:21:27.426Z,-2.20
2024-01-11T12:23:55.904Z,-1.93
2024-01-11T12:26:24.873Z,-2.01
2024-01-11T12:28:55.182Z,-1.82
2024-01-11T12:31:24.410Z,-1.98
2024-01-11T12:33:53.508Z,-1.94
2024-01-11T12:36:22.871Z,-2.01
2024-01-11T12:38:53.230Z,-2.03
2024-01-11T12:41:24.922Z,-2.08
2024-01-11T12:43:55.250Z,-1.98
2024-01-11T12:46:23.971Z,-1.78
2024-01-11T12:48:53.139Z,-1.73
2024-01-11T12:51:23.538Z,-1.70
2024-01-11T12:53:54.584Z,-1.71
2024-01-11T12:56:24.581Z,-1.92
2024-01-11T12:59:07.961Z,-1.96
2024-01-11T13:01:36.580Z,-1.88
2024-01-11T13:04:05.223Z,-1.84
2024-01-11T13:06:35.559Z,-1.80
2024-01-11T13:09:05.384Z,-1.79
2024-01-11T13:11:34.183Z,-1.98
2024-01-11T13:14:07.931Z,-2.01
2024-01-11T13:16:36.890Z,-1.96
2024-01-11T13:19:16.477Z,-1.87
2024-01-11T13:21:53.282Z,-1.80
2024-01-11T13:24:21.406Z,-1.65
2024-01-11T13:26:49.713Z,-1.78
2024-01-11T13:29:19.528Z,-1.77
2024-01-11T13:31:48.111Z,-1.71
2024-01-11T13:34:16.768Z,-1.55
2024-01-11T13:36:45.182Z,-1.69
2024-01-11T13:39:13.591Z,-1.82
2024-01-11T13:41:42.297Z,-1.83
2024-01-11T13:44:10.794Z,-1.75
2024-01-11T13:46:40.483Z,-1.84
2024-01-11T13:49:09.337Z,-1.82
2024-01-11T13:51:46.404Z,-1.83
2024-01-11T13:54:23.421Z,-1.76
2024-01-11T13:56:52.892Z,-1.89
2024-01-11T13:59:21.380Z,-1.81
2024-01-11T14:01:51.431Z,-1.90
2024-01-11T14:04:20.117Z,-1.94
2024-01-11T14:06:48.336Z,-1.90
2024-01-11T14:09:17.475Z,-1.87
2024-01-11T14:11:46.449Z,-1.92
2024-01-11T14:14:15.082Z,-1.92
2024-01-11T14:16:43.970Z,-1.84
2024-01-11T14:19:14.455Z,-1.84
2024-01-11T14:21:43.642Z,-1.68
2024-01-11T14:24:14.460Z,-1.65
2024-01-11T14:26:44.686Z,-1.70
2024-01-11T14:29:13.238Z,-1.55
2024-01-11T14:31:42.178Z,-1.63
2024-01-11T14:34:11.744Z,-1.50
2024-01-11T14:36:41.995Z,-1.34
2024-01-11T14:39:11.483Z,-1.26
2024-01-11T14:41:40.198Z,-1.35
2024-01-11T14:44:08.802Z,-1.28
2024-01-11T14:46:40.148Z,-1.29
2024-01-11T14:49:09.569Z,-1.25
2024-01-11T14:51:38.630Z,-1.26
2024-01-11T14:54:08.560Z,-1.04
2024-01-11T14:56:39.144Z,-1.16
2024-01-11T14:59:07.757Z,-0.93
2024-01-11T15:01:37.298Z,-1.07
2024-01-11T15:04:06.377Z,-1.35
2024-01-11T15:06:35.009Z,-1.24
2024-01-11T15:09:04.058Z,-1.32
2024-01-11T15:11:37.369Z,-1.42
2024-01-11T15:14:06.501Z,-1.42
2024-01-11T15:16:36.257Z,-1.33
2024-01-11T15:19:05.681Z,-1.10
2024-01-11T15:21:37.430Z,-1.02
2024-01-11T15:24:07.233Z,-1.13
2024-01-11T15:26:37.391Z,-1.22
2024-01-11T15:29:07.080Z,-1.28
2024-01-11T15:31:39.946Z,-1.18
2024-01-11T15:34:08.957Z,-1.35
2024-01-11T15:36:37.616Z,-1.20
2024-01-11T15:39:16.391Z,-1.06
2024-01-11T15:41:51.283Z,-1.00
2024-01-11T15:44:19.958Z,-1.04
2024-01-11T15:46:48.322Z,-1.03
2024-01-11T15:49:16.735Z,-1.29
2024-01-11T15:51:45.165Z,-1.13
2024-01-11T15:54:13.871Z,-1.03
2024-01-11T15:56:42.570Z,-1.05
2024-01-11T15:59:12.498Z,-1.05
2024-01-11T16:01:51.258Z,-1.00
2024-01-11T16:04:29.590Z,-1.07
2024-01-11T16:06:58.621Z,-1.05
2024-01-11T16:09:27.697Z,-0.96
2024-01-11T16:12:02.220Z,-1.11
2024-01-11T16:14:35.307Z,-1.11
2024-01-11T16:17:04.078Z,-0.95
2024-01-11T16:19:34.525Z,-0.80
2024-01-11T16:22:03.085Z,-0.72
2024-01-11T16:24:31.276Z,-0.74
2024-01-11T16:27:00.392Z,-0.96
2024-01-11T16:29:28.799Z,-0.98
2024-01-11T16:31:59.742Z,-1.00
2024-01-11T16:34:29.103Z,-0.90
2024-01-11T16:36:57.804Z,-0.96
2024-01-11T16:39:26.419Z,-0.97
2024-01-11T16:41:55.311Z,-1.07
2024-01-11T16:44:23.978Z,-1.08
2024-01-11T16:46:53.626Z,-1.05
2024-01-11T16:49:24.657Z,-1.05
2024-01-11T16:51:53.240Z,-1.09
2024-01-11T16:54:21.519Z,-1.09
2024-01-11T16:56:49.175Z,-1.02
2024-01-11T16:59:19.118Z,-1.11
2024-01-11T17:01:48.208Z,-1.09
2024-01-11T17:04:16.877Z,-1.21
2024-01-11T17:06:46.656Z,-1.17
2024-01-11T17:09:15.057Z,-0.91
2024-01-11T17:11:43.873Z,-0.85
2024-01-11T17:14:12.778Z,-0.90
2024-01-11T17:16:41.139Z,-0.88
2024-01-11T17:19:08.282Z,-0.85
2024-01-11T17:21:36.711Z,-0.86
2024-01-11T17:24:07.176Z,-0.88
2024-01-11T17:26:36.459Z,-0.87
2024-01-11T17:29:04.811Z,-0.99
2024-01-11T17:31:33.940Z,-1.09
2024-01-11T17:34:02.744Z,-0.98
2024-01-11T17:36:31.021Z,-0.74
2024-01-11T17:39:01.178Z,-0.66
2024-01-11T17:41:31.309Z,-0.53
2024-01-11T17:43:59.718Z,-0.86
2024-01-11T17:46:29.441Z,-1.10
2024-01-11T17:48:58.175Z,-0.97
2024-01-11T17:51:27.143Z,-0.83
2024-01-11T17:53:55.355Z,-0.72
2024-01-11T17:56:24.373Z,-0.67
2024-01-11T17:58:54.397Z,-0.98
2024-01-11T18:01:23.526Z,-0.80
2024-01-11T18:03:52.257Z,-0.85
2024-01-11T18:06:21.159Z,-0.89
2024-01-11T18:08:49.910Z,-0.85
2024-01-11T18:11:18.570Z,-0.69
2024-01-11T18:13:47.516Z,-0.73
2024-01-11T18:16:17.327Z,-0.72
2024-01-11T18:18:47.928Z,-0.76
2024-01-11T18:21:17.428Z,-0.82
2024-01-11T18:23:46.207Z,-0.70
2024-01-11T18:26:15.860Z,-0.86
2024-01-11T18:28:45.706Z,-0.76
2024-01-11T18:31:18.674Z,-0.90
2024-01-11T18:33:48.393Z,-0.75
2024-01-11T18:36:18.953Z,-0.86
2024-01-11T18:38:47.425Z,-0.95
2024-01-11T18:41:16.094Z,-0.73
2024-01-11T18:43:44.265Z,-0.86
2024-01-11T18:46:12.597Z,-0.88
2024-01-11T18:48:42.502Z,-0.81
2024-01-11T18:51:10.965Z,-0.83
2024-01-11T18:53:41.582Z,-0.86
2024-01-11T18:56:14.778Z,-0.60
2024-01-11T18:58:43.084Z,-0.73
2024-01-11T19:01:11.568Z,-0.76
2024-01-11T19:03:41.132Z,-0.85
2024-01-11T19:06:11.074Z,-0.90
2024-01-11T19:08:39.636Z,-0.48
2024-01-11T19:11:08.726Z,-0.56
2024-01-11T19:13:36.935Z,-0.69
2024-01-11T19:16:05.942Z,-0.81
2024-01-11T19:18:34.515Z,-0.87
2024-01-11T19:21:03.687Z,-0.83
2024-01-11T19:23:35.098Z,-0.69
2024-01-11T19:26:03.965Z,-0.58
2024-01-11T19:28:32.417Z,-0.42
2024-01-11T19:31:00.699Z,-0.56
2024-01-11T19:33:29.793Z,-0.50
2024-01-11T19:35:58.797Z,-0.33
2024-01-11T19:38:27.313Z,-0.25
2024-01-11T19:40:57.292Z,-0.30
2024-01-11T19:43:25.789Z,-0.15
2024-01-11T19:45:56.193Z,-0.31
2024-01-11T19:48:25.471Z,-0.46
2024-01-11T19:50:54.358Z,-0.69
2024-01-11T19:53:22.998Z,-0.75
2024-01-11T19:55:51.258Z,-0.62
2024-01-11T19:58:20.937Z,-0.52
2024-01-11T20:00:49.471Z,-0.62
2024-01-11T20:03:17.726Z,-0.58
2024-01-11T20:05:45.999Z,-0.55
2024-01-11T20:08:14.631Z,-0.50
2024-01-11T20:10:43.793Z,-0.52
2024-01-11T20:13:11.997Z,-0.55
2024-01-11T20:15:41.594Z,-0.48
2024-01-11T20:18:10.323Z,-0.47
2024-01-11T20:20:38.805Z,-0.50
2024-01-11T20:23:07.452Z,-0.51
2024-01-11T20:25:35.853Z,-0.47
2024-01-11T20:28:04.780Z,-0.39
2024-01-11T20:30:35.528Z,-0.41
2024-01-11T20:33:05.895Z,-0.47
2024-01-11T20:35:34.805Z,-0.44
2024-01-11T20:38:03.986Z,-0.57
2024-01-11T20:40:32.165Z,-0.45
2024-01-11T20:43:01.162Z,-0.42
2024-01-11T20:45:29.259Z,-0.51
2024-01-11T20:47:57.891Z,-0.43
2024-01-11T20:50:27.747Z,-0.42
2024-01-11T20:52:56.357Z,-0.45
2024-01-11T20:55:24.763Z,-0.50
2024-01-11T20:57:53.620Z,-0.45
2024-01-11T21:00:22.903Z,-0.43
2024-01-11T21:02:52.264Z,-0.32
2024-01-11T21:05:21.783Z,-0.20
2024-01-11T21:07:54.567Z,-0.20
2024-01-11T21:10:25.439Z,0.07
2024-01-11T21:12:53.892Z,-0.12
2024-01-11T21:15:22.180Z,-0.23
2024-01-11T21:17:50.961Z,-0.25
2024-01-11T21:20:19.845Z,-0.28
2024-01-11T21:22:48.698Z,-0.38
2024-01-11T21:25:18.925Z,-0.29
2024-01-11T21:27:47.595Z,-0.22
2024-01-11T21:30:17.069Z,-0.23
2024-01-11T21:32:45.835Z,-0.44
2024-01-11T21:35:19.218Z,-0.36
2024-01-11T21:37:50.722Z,-0.34
2024-01-11T21:40:20.793Z,-0.28
2024-01-11T21:42:49.154Z,-0.25
2024-01-11T21:45:18.032Z,-0.29
2024-01-11T21:47:48.382Z,-0.28
2024-01-11T21:50:18.184Z,-0.22
2024-01-11T21:52:47.425Z,-0.25
2024-01-11T21:55:16.167Z,-0.19
2024-01-11T21:57:46.183Z,-0.18
2024-01-11T22:00:15.666Z,-0.29
2024-01-11T22:02:44.081Z,-0.21
2024-01-11T22:05:12.348Z,-0.12
2024-01-11T22:07:40.524Z,-0.11
2024-01-11T22:10:10.589Z,-0.14
2024-01-11T22:12:38.974Z,-0.19
2024-01-11T22:15:10.958Z,-0.04
2024-01-11T22:17:38.984Z,-0.02
2024-01-11T22:20:08.775Z,0.00
2024-01-11T22:22:37.410Z,0.05
2024-01-11T22:25:06.103Z,0.00
2024-01-11T22:27:34.654Z,-0.07
2024-01-11T22:30:05.211Z,-0.03
2024-01-11T22:32:36.527Z,0.04
2024-01-11T22:35:05.542Z,0.09
2024-01-11T22:37:33.832Z,0.02
2024-01-11T22:40:02.120Z,-0.02
2024-01-11T22:42:31.079Z,0.08
2024-01-11T22:44:59.881Z,0.11
2024-01-11T22:47:28.546Z,0.06
2024-01-11T22:49:58.142Z,0.03
2024-01-11T22:52:26.770Z,0.02
2024-01-11T22:54:55.238Z,0.03
2024-01-11T22:57:23.380Z,0.03
2024-01-11T22:59:51.665Z,0.05
2024-01-11T23:02:20.316Z,0.03
2024-01-11T23:04:48.845Z,0.02
2024-01-11T23:07:18.581Z,0.08
2024-01-11T23:09:47.546Z,0.13
2024-01-11T23:12:15.957Z,0.08
2024-01-11T23:14:44.109Z,0.10
2024-01-11T23:17:12.328Z,0.08
2024-01-11T23:19:40.696Z,0.09
2024-01-11T23:22:08.941Z,0.11
2024-01-11T23:24:38.404Z,0.11
2024-01-11T23:27:07.107Z,0.11
2024-01-11T23:29:35.693Z,0.09
2024-01-11T23:32:04.065Z,0.11
2024-01-11T23:34:32.605Z,0.16
2024-01-11T23:37:00.957Z,0.14
2024-01-11T23:39:29.029Z,0.17
2024-01-11T23:41:58.648Z,0.17
2024-01-11T23:44:27.004Z,0.18
2024-01-11T23:46:55.276Z,0.12
2024-01-11T23:49:23.637Z,0.16
2024-01-11T23:51:51.798Z,0.23
2024-01-11T23:54:20.168Z,0.27
2024-01-11T23:56:48.394Z,0.23
2024-01-11T23:59:20.265Z,0.25
